createdAt,value
2016-10-07T00:00:11.626Z,0
2016-10-07T00:01:11.607Z,0
2016-10-07T00:02:11.601Z,0
2016-10-07T00:03:11.581Z,0
2016-10-07T00:04:11.568Z,0
2016-10-07T00:05:11.575Z,0
2016-10-07T00:06:11.854Z,0
2016-10-07T00:07:11.523Z,0
2016-10-07T00:08:11.514Z,0
2016-10-07T00:09:11.510Z,0
2016-10-07T00:10:11.500Z,0
2016-10-07T00:11:12.105Z,0
2016-10-07T00:12:11.460Z,0
2016-10-07T00:13:11.481Z,0
2016-10-07T00:14:11.432Z,0
2016-10-07T00:15:11.744Z,0
2016-10-07T00:16:11.422Z,0
2016-10-07T00:17:11.724Z,0
2016-10-07T00:18:11.385Z,0
2016-10-07T00:19:11.378Z,0
2016-10-07T00:20:11.355Z,0
2016-10-07T00:21:11.342Z,0
2016-10-07T00:22:11.359Z,0
2016-10-07T00:23:11.950Z,0
2016-10-07T00:24:11.309Z,0
2016-10-07T00:25:11.624Z,0
2016-10-07T00:26:11.282Z,0
2016-10-07T00:27:11.580Z,0
2016-10-07T00:28:11.247Z,0
2016-10-07T00:29:11.283Z,0
2016-10-07T00:30:11.208Z,0
2016-10-07T00:31:11.208Z,0
2016-10-07T00:32:11.194Z,0
2016-10-07T00:33:11.498Z,0
2016-10-07T00:34:11.223Z,0
2016-10-07T00:35:11.157Z,0
2016-10-07T00:36:11.138Z,0
2016-10-07T00:37:11.127Z,0
2016-10-07T00:38:11.114Z,0
2016-10-07T00:39:11.109Z,0
2016-10-07T00:40:11.090Z,0
2016-10-07T00:41:11.069Z,0
2016-10-07T00:42:11.059Z,0
2016-10-07T00:43:11.685Z,0
2016-10-07T00:44:11.351Z,0
2016-10-07T00:45:11.333Z,0
2016-10-07T00:46:11.005Z,0
2016-10-07T00:47:10.993Z,0
2016-10-07T00:48:10.994Z,0
2016-10-07T00:49:10.975Z,0
2016-10-07T00:50:11.158Z,0
2016-10-07T00:51:10.936Z,0
2016-10-07T00:52:11.629Z,0
2016-10-07T00:53:10.909Z,0
2016-10-07T00:54:10.903Z,0
2016-10-07T00:55:10.891Z,0
2016-10-07T00:56:10.873Z,0
2016-10-07T00:57:10.864Z,0
2016-10-07T00:58:10.847Z,0
2016-10-07T00:59:10.831Z,0
2016-10-07T01:00:11.140Z,0
2016-10-07T01:01:11.013Z,0
2016-10-07T01:02:10.804Z,0
2016-10-07T01:03:10.789Z,0
2016-10-07T01:04:10.768Z,0
2016-10-07T01:05:11.095Z,0
2016-10-07T01:06:10.740Z,0
2016-10-07T01:07:10.732Z,0
2016-10-07T01:08:10.919Z,0
2016-10-07T01:09:10.721Z,0
2016-10-07T01:10:10.687Z,0
2016-10-07T01:11:10.688Z,0
2016-10-07T01:12:10.667Z,0
2016-10-07T01:13:10.652Z,0
2016-10-07T01:14:10.630Z,0
2016-10-07T01:15:10.685Z,0
2016-10-07T01:16:10.612Z,0
2016-10-07T01:17:10.592Z,0
2016-10-07T01:18:10.581Z,0
2016-10-07T01:19:10.589Z,0
2016-10-07T01:20:10.565Z,0
2016-10-07T01:21:10.542Z,0
2016-10-07T01:22:10.533Z,0
2016-10-07T01:23:10.519Z,0
2016-10-07T01:24:10.502Z,0
2016-10-07T01:25:10.503Z,0
2016-10-07T01:26:10.475Z,0
2016-10-07T01:27:10.502Z,0
2016-10-07T01:28:10.489Z,0
2016-10-07T01:29:10.770Z,0
2016-10-07T01:30:10.423Z,0
2016-10-07T01:31:10.415Z,0
2016-10-07T01:32:11.039Z,0
2016-10-07T01:33:10.434Z,0
2016-10-07T01:34:10.375Z,0
2016-10-07T01:35:10.679Z,0
2016-10-07T01:36:10.674Z,0
2016-10-07T01:37:10.335Z,0
2016-10-07T01:38:10.313Z,0
2016-10-07T01:39:10.316Z,0
2016-10-07T01:40:10.295Z,0
2016-10-07T01:41:10.298Z,0
2016-10-07T01:42:10.608Z,0
2016-10-07T01:43:10.566Z,0
2016-10-07T01:44:10.243Z,0
2016-10-07T01:45:10.224Z,0
2016-10-07T01:46:10.215Z,0
2016-10-07T01:47:10.192Z,0
2016-10-07T01:48:10.501Z,0
2016-10-07T01:49:10.193Z,0
2016-10-07T01:50:10.475Z,0
2016-10-07T01:51:10.149Z,0
2016-10-07T01:52:10.449Z,0
2016-10-07T01:53:10.123Z,0
2016-10-07T01:54:10.114Z,0
2016-10-07T01:55:10.101Z,0
2016-10-07T01:56:10.089Z,0
2016-10-07T01:57:10.068Z,0
2016-10-07T01:58:10.061Z,0
2016-10-07T01:59:10.356Z,0
2016-10-07T02:00:10.034Z,0
2016-10-07T02:01:10.015Z,0
2016-10-07T02:02:10.020Z,0
2016-10-07T02:03:09.991Z,0
2016-10-07T02:04:09.985Z,0
2016-10-07T02:05:10.608Z,0
2016-10-07T02:06:09.958Z,0
2016-10-07T02:07:10.262Z,0
2016-10-07T02:08:10.241Z,0
2016-10-07T02:09:10.232Z,0
2016-10-07T02:10:09.897Z,0
2016-10-07T02:11:10.201Z,0
2016-10-07T02:12:09.909Z,0
2016-10-07T02:13:09.862Z,0
2016-10-07T02:14:09.848Z,0
2016-10-07T02:15:10.150Z,0
2016-10-07T02:16:10.023Z,0
2016-10-07T02:17:10.116Z,0
2016-10-07T02:18:09.787Z,0
2016-10-07T02:19:09.778Z,0
2016-10-07T02:20:10.078Z,0
2016-10-07T02:21:09.756Z,0
2016-10-07T02:22:10.055Z,0
2016-10-07T02:23:09.732Z,0
2016-10-07T02:24:09.716Z,0
2016-10-07T02:25:09.699Z,0
2016-10-07T02:26:10.001Z,0
2016-10-07T02:27:09.673Z,0
2016-10-07T02:28:09.662Z,0
2016-10-07T02:29:10.273Z,0
2016-10-07T02:30:09.637Z,0
2016-10-07T02:31:09.669Z,0
2016-10-07T02:32:09.603Z,0
2016-10-07T02:33:09.906Z,0
2016-10-07T02:34:09.583Z,0
2016-10-07T02:35:09.882Z,0
2016-10-07T02:36:09.872Z,0
2016-10-07T02:37:09.548Z,0
2016-10-07T02:38:09.525Z,0
2016-10-07T02:39:10.147Z,0
2016-10-07T02:40:09.814Z,0
2016-10-07T02:41:09.808Z,0
2016-10-07T02:42:09.480Z,0
2016-10-07T02:43:10.090Z,0
2016-10-07T02:44:09.453Z,0
2016-10-07T02:45:09.433Z,0
2016-10-07T02:46:09.423Z,0
2016-10-07T02:47:09.410Z,0
2016-10-07T02:48:09.394Z,0
2016-10-07T02:49:09.702Z,0
2016-10-07T02:50:09.373Z,0
2016-10-07T02:51:09.357Z,0
2016-10-07T02:52:09.337Z,0
2016-10-07T02:53:09.323Z,0
2016-10-07T02:54:09.313Z,0
2016-10-07T02:55:09.300Z,0
2016-10-07T02:56:09.286Z,0
2016-10-07T02:57:09.275Z,0
2016-10-07T02:58:09.265Z,0
2016-10-07T02:59:09.562Z,0
2016-10-07T03:00:09.235Z,0
2016-10-07T03:01:09.737Z,0
2016-10-07T03:02:09.207Z,0
2016-10-07T03:03:09.264Z,0
2016-10-07T03:04:09.181Z,0
2016-10-07T03:05:09.175Z,0
2016-10-07T03:06:09.465Z,0
2016-10-07T03:07:09.471Z,0
2016-10-07T03:08:09.132Z,0
2016-10-07T03:09:09.117Z,0
2016-10-07T03:10:09.457Z,0
2016-10-07T03:11:09.752Z,0
2016-10-07T03:12:09.404Z,0
2016-10-07T03:13:09.377Z,0
2016-10-07T03:14:09.365Z,0
2016-10-07T03:15:09.680Z,0
2016-10-07T03:16:09.337Z,0
2016-10-07T03:17:09.392Z,0
2016-10-07T03:18:09.326Z,0
2016-10-07T03:19:08.995Z,0
2016-10-07T03:20:08.979Z,0
2016-10-07T03:21:09.338Z,0
2016-10-07T03:22:09.152Z,0
2016-10-07T03:23:09.264Z,0
2016-10-07T03:24:08.918Z,0
2016-10-07T03:25:08.953Z,0
2016-10-07T03:26:08.889Z,0
2016-10-07T03:27:08.953Z,0
2016-10-07T03:28:09.495Z,0
2016-10-07T03:29:09.269Z,0
2016-10-07T03:30:08.841Z,0
2016-10-07T03:31:08.829Z,0
2016-10-07T03:32:08.814Z,0
2016-10-07T03:33:09.123Z,0
2016-10-07T03:34:09.099Z,0
2016-10-07T03:35:08.795Z,0
2016-10-07T03:36:09.075Z,0
2016-10-07T03:37:09.115Z,0
2016-10-07T03:38:09.359Z,0
2016-10-07T03:39:08.717Z,0
2016-10-07T03:40:08.709Z,0
2016-10-07T03:41:08.701Z,0
2016-10-07T03:42:08.675Z,0
2016-10-07T03:43:08.670Z,0
2016-10-07T03:44:08.992Z,0
2016-10-07T03:45:08.979Z,0
2016-10-07T03:46:08.636Z,0
2016-10-07T03:47:08.939Z,0
2016-10-07T03:48:08.622Z,0
2016-10-07T03:49:08.589Z,0
2016-10-07T03:50:08.904Z,0
2016-10-07T03:51:08.566Z,0
2016-10-07T03:52:08.871Z,0
2016-10-07T03:53:08.532Z,0
2016-10-07T03:54:08.524Z,0
2016-10-07T03:55:08.508Z,0
2016-10-07T03:56:08.500Z,0
2016-10-07T03:57:08.485Z,0
2016-10-07T03:58:08.464Z,0
2016-10-07T03:59:08.769Z,0
2016-10-07T04:00:08.759Z,0
2016-10-07T04:01:08.750Z,0
2016-10-07T04:02:08.420Z,0
2016-10-07T04:03:08.719Z,0
2016-10-07T04:04:08.392Z,0
2016-10-07T04:05:08.683Z,0
2016-10-07T04:06:08.389Z,0
2016-10-07T04:07:08.359Z,0
2016-10-07T04:08:08.671Z,0
2016-10-07T04:09:09.288Z,0
2016-10-07T04:10:08.953Z,0
2016-10-07T04:11:08.305Z,0
2016-10-07T04:12:08.919Z,0
2016-10-07T04:13:08.902Z,0
2016-10-07T04:14:08.274Z,0
2016-10-07T04:15:08.560Z,0
2016-10-07T04:16:08.550Z,0
2016-10-07T04:17:09.175Z,0
2016-10-07T04:18:08.538Z,0
2016-10-07T04:19:08.198Z,0
2016-10-07T04:20:08.186Z,0
2016-10-07T04:21:08.171Z,0
2016-10-07T04:22:08.469Z,0
2016-10-07T04:23:08.146Z,0
2016-10-07T04:24:08.457Z,0
2016-10-07T04:25:08.129Z,0
2016-10-07T04:26:08.109Z,0
2016-10-07T04:27:08.720Z,0
2016-10-07T04:28:08.073Z,0
2016-10-07T04:29:08.067Z,0
2016-10-07T04:30:08.049Z,0
2016-10-07T04:31:08.389Z,0
2016-10-07T04:32:08.033Z,0
2016-10-07T04:33:08.014Z,0
2016-10-07T04:34:07.997Z,0
2016-10-07T04:35:07.978Z,0
2016-10-07T04:36:07.964Z,0
2016-10-07T04:37:08.276Z,0
2016-10-07T04:38:08.156Z,0
2016-10-07T04:39:08.261Z,0
2016-10-07T04:40:08.243Z,0
2016-10-07T04:41:07.914Z,0
2016-10-07T04:42:07.890Z,0
2016-10-07T04:43:07.932Z,0
2016-10-07T04:44:07.860Z,0
2016-10-07T04:45:07.855Z,0
2016-10-07T04:46:07.857Z,0
2016-10-07T04:47:07.830Z,0
2016-10-07T04:48:08.539Z,0
2016-10-07T04:49:08.433Z,0
2016-10-07T04:50:07.784Z,0
2016-10-07T04:51:07.776Z,0
2016-10-07T04:52:07.760Z,0
2016-10-07T04:53:08.106Z,0
2016-10-07T04:54:08.044Z,0
2016-10-07T04:55:08.034Z,0
2016-10-07T04:56:07.715Z,0
2016-10-07T04:57:07.697Z,0
2016-10-07T04:58:07.783Z,0
2016-10-07T04:59:07.989Z,0
2016-10-07T05:00:07.962Z,0
2016-10-07T05:01:07.844Z,0
2016-10-07T05:02:07.633Z,0
2016-10-07T05:03:07.718Z,0
2016-10-07T05:04:07.611Z,0
2016-10-07T05:05:07.595Z,0
2016-10-07T05:06:07.576Z,0
2016-10-07T05:07:08.187Z,0
2016-10-07T05:08:07.543Z,0
2016-10-07T05:09:07.536Z,0
2016-10-07T05:10:07.521Z,0
2016-10-07T05:11:07.823Z,0
2016-10-07T05:12:07.498Z,0
2016-10-07T05:13:07.495Z,0
2016-10-07T05:14:07.483Z,0
2016-10-07T05:15:07.452Z,0
2016-10-07T05:16:07.452Z,0
2016-10-07T05:17:07.427Z,0
2016-10-07T05:18:07.418Z,0
2016-10-07T05:19:07.395Z,0
2016-10-07T05:20:07.389Z,0
2016-10-07T05:21:07.374Z,0
2016-10-07T05:22:07.371Z,0
2016-10-07T05:23:07.345Z,0
2016-10-07T05:24:07.332Z,0
2016-10-07T05:25:07.631Z,0
2016-10-07T05:26:07.313Z,0
2016-10-07T05:27:07.292Z,0
2016-10-07T05:28:07.284Z,0
2016-10-07T05:29:07.268Z,0
2016-10-07T05:30:07.570Z,0
2016-10-07T05:31:07.242Z,0
2016-10-07T05:32:07.234Z,0
2016-10-07T05:33:07.215Z,0
2016-10-07T05:34:07.511Z,0
2016-10-07T05:35:07.192Z,0
2016-10-07T05:36:07.166Z,0
2016-10-07T05:37:07.172Z,0
2016-10-07T05:38:07.509Z,0
2016-10-07T05:39:07.139Z,0
2016-10-07T05:40:07.434Z,0
2016-10-07T05:41:07.440Z,0
2016-10-07T05:42:07.120Z,0
2016-10-07T05:43:07.475Z,0
2016-10-07T05:44:07.392Z,0
2016-10-07T05:45:07.078Z,0
2016-10-07T05:46:07.049Z,0
2016-10-07T05:47:07.053Z,0
2016-10-07T05:48:07.014Z,0
2016-10-07T05:49:07.009Z,0
2016-10-07T05:50:06.993Z,0
2016-10-07T05:51:06.981Z,0
2016-10-07T05:52:06.970Z,0
2016-10-07T05:53:06.957Z,0
2016-10-07T05:54:06.934Z,0
2016-10-07T05:55:06.923Z,0
2016-10-07T05:56:06.924Z,0
2016-10-07T05:57:06.910Z,0
2016-10-07T05:58:07.205Z,0
2016-10-07T05:59:06.871Z,0
2016-10-07T06:00:06.859Z,0
2016-10-07T06:01:06.846Z,0
2016-10-07T06:02:06.832Z,0
2016-10-07T06:03:07.144Z,0
2016-10-07T06:04:06.814Z,0
2016-10-07T06:05:07.111Z,0
2016-10-07T06:06:06.783Z,0
2016-10-07T06:07:07.086Z,0
2016-10-07T06:08:06.772Z,0
2016-10-07T06:09:07.064Z,0
2016-10-07T06:10:07.042Z,0
2016-10-07T06:11:06.728Z,0
2016-10-07T06:12:06.707Z,0
2016-10-07T06:13:06.729Z,0
2016-10-07T06:14:07.305Z,0
2016-10-07T06:15:06.986Z,0
2016-10-07T06:16:06.698Z,5
2016-10-07T06:17:06.667Z,5
2016-10-07T06:18:06.638Z,5
2016-10-07T06:19:06.933Z,5
2016-10-07T06:20:06.917Z,5
2016-10-07T06:21:07.238Z,5
2016-10-07T06:22:06.614Z,5
2016-10-07T06:23:06.917Z,5
2016-10-07T06:24:06.541Z,5
2016-10-07T06:25:06.545Z,5
2016-10-07T06:26:06.523Z,5
2016-10-07T06:27:06.516Z,5
2016-10-07T06:28:06.498Z,5
2016-10-07T06:29:06.799Z,5
2016-10-07T06:30:06.482Z,5
2016-10-07T06:31:07.089Z,5
2016-10-07T06:32:06.440Z,5
2016-10-07T06:33:06.747Z,5
2016-10-07T06:34:06.725Z,5
2016-10-07T06:35:06.420Z,5
2016-10-07T06:36:06.402Z,5
2016-10-07T06:37:06.379Z,5
2016-10-07T06:38:06.709Z,5
2016-10-07T06:39:06.682Z,5
2016-10-07T06:40:06.343Z,5
2016-10-07T06:41:06.979Z,5
2016-10-07T06:42:06.312Z,5
2016-10-07T06:43:06.305Z,5
2016-10-07T06:44:06.488Z,5
2016-10-07T06:45:06.291Z,5
2016-10-07T06:46:06.299Z,5
2016-10-07T06:47:06.268Z,10
2016-10-07T06:48:06.567Z,10
2016-10-07T06:49:06.265Z,10
2016-10-07T06:50:06.568Z,10
2016-10-07T06:51:06.195Z,10
2016-10-07T06:52:06.202Z,10
2016-10-07T06:53:06.802Z,15
2016-10-07T06:54:06.158Z,15
2016-10-07T06:55:06.158Z,15
2016-10-07T06:56:06.499Z,15
2016-10-07T06:57:06.118Z,15
2016-10-07T06:58:06.123Z,15
2016-10-07T06:59:06.417Z,15
2016-10-07T07:00:06.408Z,20
2016-10-07T07:01:06.271Z,20
2016-10-07T07:02:06.380Z,20
2016-10-07T07:03:06.037Z,20
2016-10-07T07:04:06.038Z,25
2016-10-07T07:05:06.017Z,30
2016-10-07T07:06:06.319Z,30
2016-10-07T07:07:06.304Z,30
2016-10-07T07:08:06.176Z,35
2016-10-07T07:09:06.591Z,40
2016-10-07T07:10:05.963Z,40
2016-10-07T07:11:06.260Z,40
2016-10-07T07:12:05.934Z,45
2016-10-07T07:13:05.916Z,40
2016-10-07T07:14:05.904Z,40
2016-10-07T07:15:06.207Z,40
2016-10-07T07:16:05.888Z,40
2016-10-07T07:17:05.858Z,40
2016-10-07T07:18:05.858Z,40
2016-10-07T07:19:05.835Z,45
2016-10-07T07:20:05.840Z,40
2016-10-07T07:21:06.120Z,40
2016-10-07T07:22:06.128Z,40
2016-10-07T07:23:06.413Z,40
2016-10-07T07:24:06.713Z,40
2016-10-07T07:25:06.076Z,40
2016-10-07T07:26:05.756Z,50
2016-10-07T07:27:05.735Z,50
2016-10-07T07:28:06.031Z,50
2016-10-07T07:29:05.711Z,50
2016-10-07T07:30:05.693Z,60
2016-10-07T07:31:05.680Z,60
2016-10-07T07:32:05.981Z,90
2016-10-07T07:33:05.656Z,100
2016-10-07T07:34:05.637Z,100
2016-10-07T07:35:05.628Z,100
2016-10-07T07:36:05.613Z,85
2016-10-07T07:37:05.600Z,85
2016-10-07T07:38:05.587Z,85
2016-10-07T07:39:05.895Z,90
2016-10-07T07:40:05.570Z,85
2016-10-07T07:41:05.544Z,80
2016-10-07T07:42:05.857Z,85
2016-10-07T07:43:05.846Z,70
2016-10-07T07:44:05.826Z,65
2016-10-07T07:45:05.501Z,55
2016-10-07T07:46:05.479Z,50
2016-10-07T07:47:05.479Z,45
2016-10-07T07:48:05.787Z,50
2016-10-07T07:49:05.760Z,50
2016-10-07T07:50:05.439Z,55
2016-10-07T07:51:05.736Z,50
2016-10-07T07:52:05.730Z,50
2016-10-07T07:53:05.709Z,50
2016-10-07T07:54:05.387Z,50
2016-10-07T07:55:05.703Z,50
2016-10-07T07:56:05.360Z,55
2016-10-07T07:57:05.358Z,55
2016-10-07T07:58:05.335Z,75
2016-10-07T07:59:05.331Z,75
2016-10-07T08:00:05.334Z,65
2016-10-07T08:01:05.303Z,60
2016-10-07T08:02:05.606Z,75
2016-10-07T08:03:05.613Z,70
2016-10-07T08:04:05.574Z,65
2016-10-07T08:05:05.876Z,75
2016-10-07T08:06:05.234Z,85
2016-10-07T08:07:05.252Z,100
2016-10-07T08:08:05.230Z,105
2016-10-07T08:09:05.199Z,120
2016-10-07T08:10:05.829Z,110
2016-10-07T08:11:05.188Z,110
2016-10-07T08:12:05.166Z,110
2016-10-07T08:13:05.503Z,110
2016-10-07T08:14:05.461Z,90
2016-10-07T08:15:05.131Z,75
2016-10-07T08:16:05.124Z,75
2016-10-07T08:17:05.428Z,90
2016-10-07T08:18:05.105Z,105
2016-10-07T08:19:05.392Z,120
2016-10-07T08:20:05.071Z,145
2016-10-07T08:21:05.107Z,155
2016-10-07T08:22:05.679Z,145
2016-10-07T08:23:05.039Z,135
2016-10-07T08:24:05.340Z,145
2016-10-07T08:25:05.345Z,155
2016-10-07T08:26:05.625Z,175
2016-10-07T08:27:04.993Z,170
2016-10-07T08:28:04.974Z,155
2016-10-07T08:29:05.280Z,160
2016-10-07T08:30:04.955Z,150
2016-10-07T08:31:05.244Z,130
2016-10-07T08:32:04.935Z,125
2016-10-07T08:33:05.234Z,120
2016-10-07T08:34:04.899Z,120
2016-10-07T08:35:04.895Z,120
2016-10-07T08:36:05.820Z,110
2016-10-07T08:37:04.866Z,105
2016-10-07T08:38:05.489Z,105
2016-10-07T08:39:05.156Z,95
2016-10-07T08:40:04.826Z,85
2016-10-07T08:41:04.822Z,85
2016-10-07T08:42:04.818Z,90
2016-10-07T08:43:04.790Z,85
2016-10-07T08:44:05.737Z,95
2016-10-07T08:45:04.774Z,105
2016-10-07T08:46:04.758Z,100
2016-10-07T08:47:05.067Z,100
2016-10-07T08:48:05.052Z,100
2016-10-07T08:49:05.039Z,95
2016-10-07T08:50:04.731Z,95
2016-10-07T08:51:05.014Z,100
2016-10-07T08:52:04.713Z,95
2016-10-07T08:53:04.988Z,95
2016-10-07T08:54:04.669Z,120
2016-10-07T08:55:04.655Z,135
2016-10-07T08:56:04.642Z,120
2016-10-07T08:57:04.956Z,100
2016-10-07T08:58:05.270Z,110
2016-10-07T08:59:04.929Z,110
2016-10-07T09:00:04.610Z,115
2016-10-07T09:01:04.999Z,115
2016-10-07T09:02:04.885Z,110
2016-10-07T09:03:04.577Z,100
2016-10-07T09:04:04.859Z,95
2016-10-07T09:05:04.540Z,90
2016-10-07T09:06:04.838Z,75
2016-10-07T09:07:04.529Z,85
2016-10-07T09:08:04.819Z,100
2016-10-07T09:09:04.810Z,105
2016-10-07T09:10:04.489Z,125
2016-10-07T09:11:04.778Z,135
2016-10-07T09:12:04.457Z,130
2016-10-07T09:13:04.447Z,135
2016-10-07T09:14:04.739Z,185
2016-10-07T09:15:04.429Z,170
2016-10-07T09:16:04.752Z,160
2016-10-07T09:17:04.729Z,180
2016-10-07T09:18:04.386Z,195
2016-10-07T09:19:04.365Z,245
2016-10-07T09:20:04.379Z,290
2016-10-07T09:21:04.345Z,260
2016-10-07T09:22:04.659Z,270
2016-10-07T09:23:04.337Z,290
2016-10-07T09:24:04.320Z,280
2016-10-07T09:25:04.941Z,200
2016-10-07T09:26:04.331Z,165
2016-10-07T09:27:04.293Z,135
2016-10-07T09:28:05.217Z,110
2016-10-07T09:29:04.586Z,115
2016-10-07T09:30:04.253Z,150
2016-10-07T09:31:04.234Z,145
2016-10-07T09:32:04.222Z,135
2016-10-07T09:33:04.218Z,130
2016-10-07T09:34:04.216Z,130
2016-10-07T09:35:04.193Z,140
2016-10-07T09:36:04.505Z,155
2016-10-07T09:37:04.224Z,155
2016-10-07T09:38:04.795Z,155
2016-10-07T09:39:04.474Z,165
2016-10-07T09:40:04.773Z,160
2016-10-07T09:41:04.137Z,145
2016-10-07T09:42:04.197Z,130
2016-10-07T09:43:04.139Z,145
2016-10-07T09:44:04.103Z,155
2016-10-07T09:45:04.097Z,170
2016-10-07T09:46:04.071Z,180
2016-10-07T09:47:04.390Z,165
2016-10-07T09:48:04.060Z,185
2016-10-07T09:49:04.042Z,220
2016-10-07T09:50:04.043Z,185
2016-10-07T09:51:04.344Z,160
2016-10-07T09:52:04.022Z,150
2016-10-07T09:53:03.999Z,170
2016-10-07T09:54:04.002Z,185
2016-10-07T09:55:03.977Z,160
2016-10-07T09:56:04.012Z,155
2016-10-07T09:57:03.955Z,170
2016-10-07T09:58:04.265Z,200
2016-10-07T09:59:03.932Z,190
2016-10-07T10:00:03.967Z,205
2016-10-07T10:01:04.252Z,205
2016-10-07T10:02:04.073Z,180
2016-10-07T10:03:04.221Z,175
2016-10-07T10:04:03.892Z,205
2016-10-07T10:05:03.879Z,185
2016-10-07T10:06:03.879Z,170
2016-10-07T10:07:03.867Z,210
2016-10-07T10:08:04.477Z,225
2016-10-07T10:09:03.846Z,250
2016-10-07T10:10:04.456Z,210
2016-10-07T10:11:03.817Z,165
2016-10-07T10:12:03.813Z,155
2016-10-07T10:13:03.796Z,145
2016-10-07T10:14:03.778Z,220
2016-10-07T10:15:03.774Z,240
2016-10-07T10:16:03.773Z,225
2016-10-07T10:17:03.752Z,270
2016-10-07T10:18:04.065Z,285
2016-10-07T10:19:03.739Z,355
2016-10-07T10:20:04.039Z,375
2016-10-07T10:21:03.702Z,375
2016-10-07T10:22:03.699Z,370
2016-10-07T10:23:03.710Z,355
2016-10-07T10:24:04.032Z,380
2016-10-07T10:25:03.692Z,380
2016-10-07T10:26:03.673Z,410
2016-10-07T10:27:03.673Z,370
2016-10-07T10:28:04.271Z,330
2016-10-07T10:29:03.636Z,260
2016-10-07T10:30:03.638Z,230
2016-10-07T10:31:03.614Z,220
2016-10-07T10:32:03.618Z,195
2016-10-07T10:33:03.609Z,180
2016-10-07T10:34:03.601Z,190
2016-10-07T10:35:03.575Z,180
2016-10-07T10:36:03.581Z,200
2016-10-07T10:37:03.590Z,195
2016-10-07T10:38:03.861Z,180
2016-10-07T10:39:03.594Z,145
2016-10-07T10:40:03.579Z,150
2016-10-07T10:41:03.526Z,200
2016-10-07T10:42:04.149Z,220
2016-10-07T10:43:03.505Z,215
2016-10-07T10:44:03.812Z,185
2016-10-07T10:45:03.507Z,185
2016-10-07T10:46:03.487Z,235
2016-10-07T10:47:03.505Z,260
2016-10-07T10:48:03.474Z,300
2016-10-07T10:49:03.447Z,315
2016-10-07T10:50:03.438Z,315
2016-10-07T10:51:03.743Z,300
2016-10-07T10:52:03.433Z,295
2016-10-07T10:53:03.416Z,280
2016-10-07T10:54:03.404Z,270
2016-10-07T10:55:04.042Z,275
2016-10-07T10:56:03.711Z,295
2016-10-07T10:57:03.382Z,320
2016-10-07T10:58:03.680Z,310
2016-10-07T10:59:03.356Z,310
2016-10-07T11:00:03.659Z,315
2016-10-07T11:01:03.658Z,320
2016-10-07T11:02:03.864Z,330
2016-10-07T11:03:03.321Z,335
2016-10-07T11:04:03.315Z,340
2016-10-07T11:05:03.621Z,335
2016-10-07T11:06:03.304Z,330
2016-10-07T11:07:03.288Z,335
2016-10-07T11:08:03.605Z,345
2016-10-07T11:09:03.585Z,330
2016-10-07T11:10:03.261Z,320
2016-10-07T11:11:03.259Z,305
2016-10-07T11:12:03.875Z,260
2016-10-07T11:13:03.233Z,225
2016-10-07T11:14:03.552Z,215
2016-10-07T11:15:03.223Z,280
2016-10-07T11:16:03.210Z,265
2016-10-07T11:17:03.843Z,310
2016-10-07T11:18:03.987Z,390
2016-10-07T11:19:03.517Z,335
2016-10-07T11:20:03.504Z,295
2016-10-07T11:21:03.170Z,260
2016-10-07T11:22:03.153Z,290
2016-10-07T11:23:03.778Z,345
2016-10-07T11:24:03.183Z,295
2016-10-07T11:25:03.134Z,345
2016-10-07T11:26:03.131Z,680
2016-10-07T11:27:03.432Z,720
2016-10-07T11:28:03.115Z,650
2016-10-07T11:29:03.419Z,450
2016-10-07T11:30:03.402Z,330
2016-10-07T11:31:03.106Z,365
2016-10-07T11:32:03.075Z,315
2016-10-07T11:33:03.384Z,370
2016-10-07T11:34:03.070Z,485
2016-10-07T11:35:03.049Z,480
2016-10-07T11:36:03.046Z,520
2016-10-07T11:37:03.148Z,500
2016-10-07T11:38:03.366Z,215
2016-10-07T11:39:03.038Z,325
2016-10-07T11:40:03.024Z,585
2016-10-07T11:41:03.015Z,775
2016-10-07T11:42:03.010Z,1375
2016-10-07T11:43:02.999Z,400
2016-10-07T11:44:02.993Z,335
2016-10-07T11:45:03.021Z,290
2016-10-07T11:46:03.303Z,235
2016-10-07T11:47:03.305Z,1200
2016-10-07T11:48:02.982Z,235
2016-10-07T11:49:03.598Z,240
2016-10-07T11:50:02.963Z,225
2016-10-07T11:51:03.315Z,215
2016-10-07T11:52:03.265Z,215
2016-10-07T11:53:02.976Z,245
2016-10-07T11:54:03.588Z,290
2016-10-07T11:55:02.937Z,345
2016-10-07T11:56:03.532Z,260
2016-10-07T11:57:03.243Z,185
2016-10-07T11:58:02.919Z,180
2016-10-07T11:59:02.907Z,200
2016-10-07T12:00:02.960Z,240
2016-10-07T12:01:02.883Z,805
2016-10-07T12:02:02.883Z,330
2016-10-07T12:03:02.885Z,440
2016-10-07T12:04:02.876Z,575
2016-10-07T12:05:02.863Z,595
2016-10-07T12:06:03.236Z,685
2016-10-07T12:07:03.188Z,345
2016-10-07T12:08:02.843Z,280
2016-10-07T12:09:02.848Z,225
2016-10-07T12:10:03.178Z,210
2016-10-07T12:11:02.845Z,205
2016-10-07T12:12:03.026Z,230
2016-10-07T12:13:02.825Z,290
2016-10-07T12:14:02.817Z,1390
2016-10-07T12:15:02.825Z,730
2016-10-07T12:16:02.808Z,1265
2016-10-07T12:17:02.788Z,1405
2016-10-07T12:18:02.785Z,1505
2016-10-07T12:19:02.794Z,835
2016-10-07T12:20:02.774Z,930
2016-10-07T12:21:03.093Z,660
2016-10-07T12:22:03.073Z,375
2016-10-07T12:23:03.394Z,300
2016-10-07T12:24:03.078Z,215
2016-10-07T12:25:02.752Z,145
2016-10-07T12:26:02.738Z,100
2016-10-07T12:27:03.049Z,70
2016-10-07T12:28:03.051Z,65
2016-10-07T12:29:02.725Z,70
2016-10-07T12:30:02.714Z,85
2016-10-07T12:31:02.716Z,125
2016-10-07T12:32:03.026Z,195
2016-10-07T12:33:03.013Z,265
2016-10-07T12:34:02.698Z,385
2016-10-07T12:35:03.038Z,395
2016-10-07T12:36:02.684Z,375
2016-10-07T12:37:02.685Z,385
2016-10-07T12:38:02.682Z,390
2016-10-07T12:39:02.668Z,385
2016-10-07T12:40:02.668Z,375
2016-10-07T12:41:02.654Z,375
2016-10-07T12:42:02.664Z,330
2016-10-07T12:43:02.691Z,300
2016-10-07T12:44:02.965Z,220
2016-10-07T12:45:02.649Z,195
2016-10-07T12:46:02.940Z,180
2016-10-07T12:47:02.941Z,180
2016-10-07T12:48:02.617Z,195
2016-10-07T12:49:02.930Z,215
2016-10-07T12:50:02.930Z,245
2016-10-07T12:51:03.224Z,280
2016-10-07T12:52:02.591Z,300
2016-10-07T12:53:02.899Z,295
2016-10-07T12:54:02.894Z,275
2016-10-07T12:55:02.882Z,250
2016-10-07T12:56:02.576Z,235
2016-10-07T12:57:02.556Z,210
2016-10-07T12:58:02.860Z,205
2016-10-07T12:59:02.858Z,190
2016-10-07T13:00:02.849Z,165
2016-10-07T13:01:02.530Z,150
2016-10-07T13:02:03.046Z,160
2016-10-07T13:03:02.517Z,180
2016-10-07T13:04:02.515Z,180
2016-10-07T13:05:02.502Z,180
2016-10-07T13:06:02.810Z,190
2016-10-07T13:07:02.489Z,200
2016-10-07T13:08:02.540Z,210
2016-10-07T13:09:02.465Z,215
2016-10-07T13:10:02.460Z,220
2016-10-07T13:11:02.461Z,210
2016-10-07T13:12:03.082Z,235
2016-10-07T13:13:02.799Z,275
2016-10-07T13:14:02.445Z,320
2016-10-07T13:15:02.733Z,1295
2016-10-07T13:16:02.427Z,1315
2016-10-07T13:17:02.407Z,740
2016-10-07T13:18:02.402Z,1035
2016-10-07T13:19:02.387Z,1315
2016-10-07T13:20:02.404Z,1190
2016-10-07T13:21:02.730Z,1130
2016-10-07T13:22:02.692Z,1100
2016-10-07T13:23:02.372Z,910
2016-10-07T13:24:02.359Z,1090
2016-10-07T13:25:02.663Z,1090
2016-10-07T13:26:02.357Z,1085
2016-10-07T13:27:02.347Z,1065
2016-10-07T13:28:02.697Z,1070
2016-10-07T13:29:02.348Z,1055
2016-10-07T13:30:02.342Z,1040
2016-10-07T13:31:02.332Z,1040
2016-10-07T13:32:02.634Z,1060
2016-10-07T13:33:02.318Z,1030
2016-10-07T13:34:02.319Z,655
2016-10-07T13:35:02.308Z,1050
2016-10-07T13:36:02.620Z,1020
2016-10-07T13:37:02.634Z,755
2016-10-07T13:38:02.305Z,1010
2016-10-07T13:39:02.614Z,1020
2016-10-07T13:40:02.619Z,1030
2016-10-07T13:41:02.617Z,1070
2016-10-07T13:42:02.346Z,1115
2016-10-07T13:43:02.296Z,1055
2016-10-07T13:44:02.299Z,300
2016-10-07T13:45:02.613Z,970
2016-10-07T13:46:02.277Z,925
2016-10-07T13:47:02.285Z,930
2016-10-07T13:48:02.806Z,975
2016-10-07T13:49:02.287Z,945
2016-10-07T13:50:02.598Z,595
2016-10-07T13:51:02.280Z,895
2016-10-07T13:52:02.607Z,610
2016-10-07T13:53:02.331Z,980
2016-10-07T13:54:02.286Z,450
2016-10-07T13:55:02.958Z,955
2016-10-07T13:56:02.295Z,435
2016-10-07T13:57:02.288Z,240
2016-10-07T13:58:02.316Z,160
2016-10-07T13:59:02.598Z,920
2016-10-07T14:00:02.264Z,880
2016-10-07T14:01:02.263Z,880
2016-10-07T14:02:02.276Z,880
2016-10-07T14:03:03.215Z,875
2016-10-07T14:04:02.890Z,700
2016-10-07T14:05:02.266Z,905
2016-10-07T14:06:02.260Z,205
2016-10-07T14:07:02.557Z,875
2016-10-07T14:08:02.250Z,800
2016-10-07T14:09:02.410Z,215
2016-10-07T14:10:02.260Z,845
2016-10-07T14:11:02.945Z,295
2016-10-07T14:12:02.285Z,445
2016-10-07T14:13:02.644Z,790
2016-10-07T14:14:02.889Z,870
2016-10-07T14:15:02.242Z,745
2016-10-07T14:16:02.563Z,855